Time;durP1;ratioP1;P1;durP2;ratioP2;P2;SDS_P1;SDS_P2;PMS_P1;PMS_P2;Temp;Humidity;BMP_temperature;BMP_pressure;BME280_temperature;BME280_humidity;BME280_pressure;Samples;Min_cycle;Max_cycle;Signal;HPM_P1;HPM_P2
2023/09/20 00:01:22;;;;;;;2.08;0.60;;;;;;;16.86;75.04;94569.91;5054329;28;20319;-80
2023/09/20 00:03:48;;;;;;;0.93;0.70;;;;;;;16.93;74.44;94569.47;5055124;28;20029;-80
2023/09/20 00:06:16;;;;;;;1.08;0.60;;;;;;;16.75;80.59;94574.63;5054637;28;20374;-80
2023/09/20 00:08:42;;;;;;;0.50;0.40;;;;;;;16.93;79.81;94572.13;5055535;28;20021;-80
2023/09/20 00:11:08;;;;;;;0.82;0.50;;;;;;;16.98;77.83;94569.34;5055276;28;20111;-80
2023/09/20 00:13:34;;;;;;;0.80;0.50;;;;;;;17.05;75.25;94571.59;5033072;28;20030;-80
2023/09/20 00:16:00;;;;;;;0.60;0.50;;;;;;;17.21;74.97;94574.63;5038555;28;20032;-80
2023/09/20 00:18:26;;;;;;;0.75;0.32;;;;;;;17.06;83.64;94568.63;5054597;28;20024;-80
2023/09/20 00:20:51;;;;;;;0.60;0.40;;;;;;;17.01;83.99;94570.63;5055094;28;20025;-80
2023/09/20 00:23:20;;;;;;;0.85;0.40;;;;;;;17.10;81.70;94566.94;5054915;28;20044;-80
2023/09/20 00:25:49;;;;;;;0.50;0.40;;;;;;;17.14;81.65;94563.69;5039051;28;20029;-80
2023/09/20 00:28:17;;;;;;;1.80;0.47;;;;;;;17.10;80.69;94556.38;5054711;28;20071;-80
2023/09/20 00:30:43;;;;;;;0.93;0.40;;;;;;;17.13;84.83;94554.97;5039602;28;20044;-80
2023/09/20 00:33:10;;;;;;;0.95;0.70;;;;;;;17.22;86.21;94563.72;5058639;28;20029;-80
2023/09/20 00:35:39;;;;;;;0.77;0.60;;;;;;;17.28;88.17;94556.44;5058583;28;20028;-80
2023/09/20 00:38:04;;;;;;;1.40;0.60;;;;;;;17.28;89.67;94561.72;5058445;28;20025;-80
2023/09/20 00:40:32;;;;;;;1.95;0.50;;;;;;;17.28;89.27;94559.09;5042019;28;20028;-80
2023/09/20 00:42:57;;;;;;;1.42;0.50;;;;;;;17.25;89.06;94559.69;5058383;28;20025;-80
2023/09/20 00:45:23;;;;;;;0.57;0.55;;;;;;;17.27;91.74;94560.19;5041688;28;20045;-80
2023/09/20 00:47:55;;;;;;;0.45;0.30;;;;;;;17.16;95.13;94564.16;5046912;28;20389;-81
2023/09/20 00:50:21;;;;;;;2.67;0.70;;;;;;;17.06;98.36;94560.69;5056482;28;20055;-80
2023/09/20 00:52:47;;;;;;;2.80;0.55;;;;;;;16.76;100.00;94557.69;5039791;28;20035;-80
2023/09/20 00:55:15;;;;;;;2.50;0.60;;;;;;;16.74;100.00;94546.63;5039551;28;20086;-80
2023/09/20 00:57:45;;;;;;;2.35;0.50;;;;;;;16.79;96.07;94557.09;5056121;28;20074;-80
2023/09/20 01:00:14;;;;;;;1.95;0.50;;;;;;;16.86;98.22;94555.88;5056539;28;20029;-80
2023/09/20 01:02:40;;;;;;;1.52;0.65;;;;;;;16.81;97.05;94560.22;5056450;28;20024;-81
2023/09/20 01:05:05;;;;;;;1.65;0.50;;;;;;;16.95;95.92;94564.66;5056167;28;20670;-80
2023/09/20 01:07:31;;;;;;;1.70;0.57;;;;;;;16.74;94.62;94559.84;5057105;28;20036;-80
2023/09/20 01:09:56;;;;;;;1.02;0.43;;;;;;;16.80;93.78;94557.88;5055869;28;20071;-80
2023/09/20 01:12:22;;;;;;;0.68;0.45;;;;;;;16.87;92.46;94554.78;5055896;28;20029;-81
2023/09/20 01:14:47;;;;;;;0.70;0.40;;;;;;;16.87;93.82;94552.16;5055895;28;20056;-81
2023/09/20 01:17:14;;;;;;;0.90;0.50;;;;;;;16.90;99.56;94551.53;5039316;28;20080;-81
2023/09/20 01:19:40;;;;;;;1.33;0.60;;;;;;;16.96;98.08;94550.34;5056046;28;20033;-80
2023/09/20 01:22:05;;;;;;;0.95;0.40;;;;;;;16.95;99.75;94543.50;5055724;28;20036;-80
2023/09/20 01:24:33;;;;;;;1.25;0.68;;;;;;;17.01;100.00;94558.16;5055768;28;20067;-80
2023/09/20 01:27:03;;;;;;;0.93;0.60;;;;;;;16.81;100.00;94562.88;5055667;28;20559;-80
2023/09/20 01:29:29;;;;;;;1.10;0.50;;;;;;;16.80;100.00;94550.72;5055773;28;20358;-81
2023/09/20 01:32:00;;;;;;;1.80;0.70;;;;;;;16.63;100.00;94553.22;5055634;28;20029;-81
2023/09/20 01:34:26;;;;;;;0.93;0.60;;;;;;;16.63;100.00;94551.38;5039282;28;20447;-80
2023/09/20 01:36:51;;;;;;;2.10;0.82;;;;;;;16.76;100.00;94552.38;5055491;28;20032;-81
2023/09/20 01:39:17;;;;;;;2.78;0.50;;;;;;;16.78;100.00;94557.38;5056510;28;20033;-81
2023/09/20 01:41:44;;;;;;;2.72;0.40;;;;;;;16.82;100.00;94550.41;5054874;28;20366;-80
2023/09/20 01:44:10;;;;;;;3.63;0.75;;;;;;;16.98;100.00;94552.66;5037484;28;20041;-80
2023/09/20 01:46:36;;;;;;;1.80;0.70;;;;;;;16.89;100.00;94556.06;5035402;28;20071;-81
2023/09/20 01:49:05;;;;;;;2.35;0.50;;;;;;;16.89;100.00;94556.06;5019215;28;20033;-80
2023/09/20 01:51:30;;;;;;;2.30;0.60;;;;;;;17.26;100.00;94547.22;5035291;28;20029;-81
2023/09/20 01:53:56;;;;;;;2.03;0.90;;;;;;;17.38;100.00;94542.13;5035233;28;20442;-80
2023/09/20 01:56:25;;;;;;;2.28;0.88;;;;;;;18.02;98.66;94540.13;5019034;28;20025;-80
2023/09/20 01:58:50;;;;;;;1.17;0.70;;;;;;;17.87;100.00;94534.19;5035300;28;20025;-80
2023/09/20 02:01:17;;;;;;;2.30;0.40;;;;;;;18.12;98.11;94534.56;5035213;28;20312;-80
2023/09/20 02:03:42;;;;;;;1.45;0.68;;;;;;;18.13;97.79;94538.75;5018937;28;20032;-80
2023/09/20 02:06:08;;;;;;;1.70;0.60;;;;;;;18.19;96.86;94537.50;5035296;28;20448;-80
2023/09/20 02:08:34;;;;;;;2.05;0.50;;;;;;;18.35;96.30;94527.22;5035978;28;20032;-80
2023/09/20 02:10:59;;;;;;;1.13;0.70;;;;;;;18.22;98.28;94533.47;5035194;28;20075;-81
2023/09/20 02:13:25;;;;;;;1.40;0.68;;;;;;;18.23;100.00;94537.69;5036227;28;20620;-80
2023/09/20 02:15:51;;;;;;;2.17;0.98;;;;;;;18.11;100.00;94545.47;5034642;28;20025;-81
2023/09/20 02:18:17;;;;;;;3.05;0.50;;;;;;;17.77;100.00;94556.44;5034461;28;20025;-80
2023/09/20 02:20:44;;;;;;;1.00;0.60;;;;;;;17.49;100.00;94556.69;5034891;28;20029;-80
2023/09/20 02:23:13;;;;;;;1.13;0.68;;;;;;;17.38;100.00;94555.38;5018678;28;20025;-80
2023/09/20 02:25:40;;;;;;;0.88;0.55;;;;;;;17.21;100.00;94556.88;5035178;28;20422;-80
2023/09/20 02:28:07;;;;;;;1.55;0.57;;;;;;;17.36;100.00;94558.34;5034395;28;20120;-80
2023/09/20 02:30:35;;;;;;;0.63;0.40;;;;;;;16.98;100.00;94558.75;5035766;28;20021;-80
2023/09/20 02:33:05;;;;;;;1.15;0.65;;;;;;;17.63;100.00;94558.44;5035040;28;20110;-80
2023/09/20 02:35:31;;;;;;;1.35;0.68;;;;;;;17.76;100.00;94549.59;5056457;28;20070;-80
2023/09/20 02:37:58;;;;;;;1.50;0.60;;;;;;;18.07;100.00;94554.03;5056663;28;20020;-80
2023/09/20 02:40:24;;;;;;;1.80;0.77;;;;;;;18.38;99.97;94544.41;5056253;28;20028;-80
2023/09/20 02:42:51;;;;;;;2.65;0.70;;;;;;;18.40;100.00;94528.16;5056307;28;20163;-80
2023/09/20 02:45:17;;;;;;;5.85;0.60;;;;;;;18.43;100.00;94536.28;5056122;28;20028;-81
2023/09/20 02:47:43;;;;;;;2.05;0.50;;;;;;;18.42;99.22;94539.22;5055757;28;20426;-81
2023/09/20 02:50:11;;;;;;;4.57;0.52;;;;;;;18.42;97.56;94523.31;5055655;28;20025;-80
2023/09/20 02:52:39;;;;;;;5.03;0.70;;;;;;;18.43;96.89;94527.53;5054972;28;20059;-80
2023/09/20 02:55:08;;;;;;;3.03;0.60;;;;;;;18.27;100.00;94524.59;5055693;28;20027;-80
2023/09/20 02:57:37;;;;;;;1.15;0.60;;;;;;;17.87;100.00;94526.22;5039573;28;20465;-80
2023/09/20 03:00:06;;;;;;;1.38;0.68;;;;;;;17.91;100.00;94526.41;5036638;28;20175;-81
2023/09/20 03:02:32;;;;;;;2.72;0.40;;;;;;;17.52;100.00;94516.31;5037293;28;20349;-80
2023/09/20 03:04:58;;;;;;;2.00;0.55;;;;;;;17.30;100.00;94516.44;5056747;28;20029;-81
2023/09/20 03:07:23;;;;;;;0.73;0.50;;;;;;;17.31;100.00;94516.09;5055401;28;20040;-81
2023/09/20 03:09:49;;;;;;;1.75;0.60;;;;;;;17.34;100.00;94512.06;5055576;28;20422;-80
2023/09/20 03:12:14;;;;;;;1.85;0.63;;;;;;;17.35;100.00;94509.09;5055745;28;20242;-80
2023/09/20 03:14:41;;;;;;;1.58;0.50;;;;;;;17.35;100.00;94516.28;5039256;28;20056;-80
2023/09/20 03:17:07;;;;;;;1.67;0.80;;;;;;;17.44;100.00;94516.31;5039283;28;20525;-80
2023/09/20 03:19:32;;;;;;;0.70;0.50;;;;;;;17.46;100.00;94519.41;5056557;28;20041;-81
2023/09/20 03:21:59;;;;;;;2.40;0.52;;;;;;;17.49;100.00;94524.91;5055716;28;20132;-80
2023/09/20 03:24:26;;;;;;;2.20;0.50;;;;;;;17.22;100.00;94520.59;5055797;28;20067;-81
2023/09/20 03:26:52;;;;;;;1.70;0.60;;;;;;;16.84;100.00;94521.00;5055449;28;20349;-81
2023/09/20 03:29:17;;;;;;;1.92;0.55;;;;;;;16.99;100.00;94523.28;5055643;28;20020;-81
2023/09/20 03:31:44;;;;;;;1.30;0.70;;;;;;;17.07;100.00;94533.16;5039052;28;20024;-80
2023/09/20 03:34:11;;;;;;;1.48;0.60;;;;;;;17.27;100.00;94527.59;5055547;28;20025;-80
2023/09/20 03:36:37;;;;;;;4.72;0.50;;;;;;;17.36;100.00;94525.78;5055368;28;20032;-80
2023/09/20 03:39:05;;;;;;;1.10;0.60;;;;;;;17.00;100.00;94522.22;5038890;28;20079;-80
2023/09/20 03:41:31;;;;;;;1.88;0.77;;;;;;;17.21;100.00;94519.81;5039297;28;20104;-81
2023/09/20 03:43:56;;;;;;;0.77;0.52;;;;;;;17.33;100.00;94527.16;5055316;28;20075;-81
2023/09/20 03:46:22;;;;;;;0.73;0.45;;;;;;;16.95;100.00;94522.31;5055314;28;20033;-81
2023/09/20 03:48:47;;;;;;;1.45;0.57;;;;;;;17.16;100.00;94521.81;5055178;28;20059;-81
2023/09/20 03:51:16;;;;;;;1.17;0.60;;;;;;;17.19;100.00;94524.63;5038796;28;20024;-80
2023/09/20 03:53:44;;;;;;;1.52;0.63;;;;;;;17.09;100.00;94520.38;5056412;28;20025;-81
2023/09/20 03:56:13;;;;;;;1.75;0.63;;;;;;;17.06;100.00;94513.03;5055146;28;20029;-81
2023/09/20 03:58:38;;;;;;;1.20;0.75;;;;;;;16.90;100.00;94514.50;5055113;28;20031;-80
2023/09/20 04:01:08;;;;;;;2.90;0.50;;;;;;;17.10;100.00;94524.59;5056320;28;20029;-81
2023/09/20 04:03:36;;;;;;;0.90;0.38;;;;;;;17.22;100.00;94523.25;5038981;28;20029;-80
2023/09/20 04:06:02;;;;;;;5.07;0.68;;;;;;;17.36;100.00;94531.06;5042532;28;20422;-81
2023/09/20 04:08:27;;;;;;;0.88;0.60;;;;;;;17.36;100.00;94537.16;5059347;28;20120;-81
2023/09/20 04:10:53;;;;;;;2.53;0.50;;;;;;;17.36;100.00;94539.81;5060092;28;20063;-81
2023/09/20 04:13:19;;;;;;;1.70;0.70;;;;;;;17.51;100.00;94532.53;5060251;28;20048;-81
2023/09/20 04:15:45;;;;;;;2.00;0.98;;;;;;;17.57;100.00;94533.94;5058872;28;20032;-81
2023/09/20 04:18:12;;;;;;;3.22;0.75;;;;;;;17.70;100.00;94529.63;5058913;28;20025;-81
2023/09/20 04:20:39;;;;;;;1.38;0.60;;;;;;;17.83;100.00;94529.78;5058798;28;20036;-81
2023/09/20 04:23:05;;;;;;;1.75;0.70;;;;;;;17.90;100.00;94519.53;5058854;28;20025;-80
2023/09/20 04:25:30;;;;;;;0.88;0.57;;;;;;;18.13;95.80;94530.81;5042424;28;20028;-81
2023/09/20 04:27:56;;;;;;;1.92;0.65;;;;;;;18.39;91.09;94519.44;5037978;28;20033;-80
2023/09/20 04:30:21;;;;;;;1.83;0.60;;;;;;;18.45;89.14;94523.47;5054530;28;20571;-82
2023/09/20 04:32:48;;;;;;;0.85;0.47;;;;;;;18.50;100.00;94522.53;5058729;28;20081;-82
2023/09/20 04:35:13;;;;;;;0.50;0.40;;;;;;;18.26;100.00;94529.09;5042182;28;20029;-82
2023/09/20 04:37:38;;;;;;;1.67;0.50;;;;;;;18.10;100.00;94520.84;5058712;28;20346;-82
2023/09/20 04:40:07;;;;;;;1.45;0.57;;;;;;;18.02;100.00;94529.53;5059712;28;20029;-82
2023/09/20 04:42:34;;;;;;;2.67;0.70;;;;;;;17.74;100.00;94522.63;5058607;28;20385;-82
2023/09/20 04:44:59;;;;;;;1.58;0.60;;;;;;;17.17;100.00;94524.16;5058435;28;20338;-82
2023/09/20 04:47:25;;;;;;;1.67;0.60;;;;;;;17.20;100.00;94525.41;5057607;28;20028;-82
2023/09/20 04:49:51;;;;;;;1.10;0.52;;;;;;;17.22;100.00;94523.25;5056113;28;20021;-82
2023/09/20 04:52:16;;;;;;;1.95;0.50;;;;;;;17.35;100.00;94522.34;5038331;28;20351;-82
2023/09/20 04:54:43;;;;;;;3.45;0.60;;;;;;;17.43;100.00;94525.34;5038292;28;20053;-81
2023/09/20 04:57:09;;;;;;;1.60;0.50;;;;;;;17.54;100.00;94516.03;5038097;28;20071;-82
2023/09/20 04:59:36;;;;;;;1.80;0.45;;;;;;;17.73;100.00;94522.94;5038086;28;20033;-81
2023/09/20 05:02:02;;;;;;;0.82;0.40;;;;;;;17.55;100.00;94517.59;5057208;28;20029;-81
2023/09/20 05:04:29;;;;;;;2.33;0.50;;;;;;;17.70;96.51;94513.72;5056857;28;20047;-81
2023/09/20 05:06:55;;;;;;;0.52;0.45;;;;;;;17.74;96.57;94511.22;5048129;28;20048;-81
2023/09/20 05:09:20;;;;;;;2.10;0.68;;;;;;;17.74;97.09;94513.88;5056085;28;20071;-81
2023/09/20 05:11:46;;;;;;;0.57;0.40;;;;;;;17.77;92.96;94521.22;5055925;28;20036;-81
2023/09/20 05:14:11;;;;;;;1.40;0.68;;;;;;;17.61;93.25;94512.94;5057084;28;20107;-81
2023/09/20 05:16:36;;;;;;;1.75;0.70;;;;;;;17.70;96.27;94523.53;5056969;28;20078;-81
2023/09/20 05:19:03;;;;;;;2.72;0.65;;;;;;;17.74;100.00;94530.56;5058821;28;20056;-81
2023/09/20 05:21:28;;;;;;;2.08;0.43;;;;;;;17.88;100.00;94530.44;5057647;28;20378;-81
2023/09/20 05:23:53;;;;;;;2.45;0.70;;;;;;;17.86;98.80;94529.16;5057576;28;20042;-81
2023/09/20 05:26:19;;;;;;;0.85;0.50;;;;;;;17.97;95.03;94534.97;5040928;28;20031;-81
2023/09/20 05:28:46;;;;;;;1.25;0.63;;;;;;;17.99;91.87;94530.16;5057652;28;20028;-81
2023/09/20 05:31:13;;;;;;;1.70;0.90;;;;;;;18.14;86.27;94529.72;5057176;28;20032;-81
2023/09/20 05:33:39;;;;;;;2.70;0.85;;;;;;;18.27;82.98;94533.31;5040901;28;20025;-81
2023/09/20 05:36:05;;;;;;;3.05;0.52;;;;;;;18.50;99.79;94527.84;5057745;28;20374;-81
2023/09/20 05:38:30;;;;;;;1.33;0.60;;;;;;;17.99;99.97;94524.84;5041014;28;20025;-81
2023/09/20 05:40:56;;;;;;;2.28;0.60;;;;;;;18.18;100.00;94524.59;5057528;28;20025;-81
2023/09/20 05:43:21;;;;;;;1.10;0.60;;;;;;;18.25;100.00;94522.22;5057356;28;20032;-81
2023/09/20 05:45:47;;;;;;;0.98;0.65;;;;;;;18.25;96.93;94521.47;5057406;28;20025;-81
2023/09/20 05:48:12;;;;;;;1.35;0.60;;;;;;;18.30;96.59;94526.59;5057176;28;20162;-81
2023/09/20 05:50:41;;;;;;;2.13;0.80;;;;;;;17.91;100.00;94529.03;5057134;28;20032;-81
2023/09/20 05:53:10;;;;;;;1.10;0.70;;;;;;;17.76;100.00;94533.69;5040796;28;20043;-81
2023/09/20 05:55:39;;;;;;;1.30;0.57;;;;;;;18.20;100.00;94535.66;5058315;28;20064;-81
2023/09/20 05:58:05;;;;;;;0.90;0.60;;;;;;;18.39;96.91;94535.34;5040435;28;20106;-81
2023/09/20 06:00:31;;;;;;;1.17;0.70;;;;;;;18.56;94.27;94542.50;5040634;28;20032;-81
2023/09/20 06:02:59;;;;;;;2.88;0.75;;;;;;;18.61;94.05;94542.34;5056997;28;20147;-81
2023/09/20 06:05:26;;;;;;;3.35;0.77;;;;;;;17.98;100.00;94539.94;5056860;28;20032;-81
2023/09/20 06:07:53;;;;;;;1.60;0.80;;;;;;;17.93;100.00;94548.06;5056793;28;20029;-81
2023/09/20 06:10:19;;;;;;;2.67;0.80;;;;;;;18.51;100.00;94548.75;5056709;28;20461;-81
2023/09/20 06:12:45;;;;;;;0.82;0.63;;;;;;;18.84;100.00;94550.09;5056774;28;20346;-81
2023/09/20 06:15:13;;;;;;;1.13;0.50;;;;;;;18.96;100.00;94549.47;5056781;28;20025;-81
2023/09/20 06:17:39;;;;;;;1.88;0.70;;;;;;;19.30;94.95;94552.38;5057806;28;20025;-81
2023/09/20 06:20:09;;;;;;;1.50;0.60;;;;;;;19.47;91.46;94557.63;5040052;28;20036;-81
2023/09/20 06:22:35;;;;;;;1.25;0.50;;;;;;;19.36;96.80;94551.88;5040676;28;20033;-81
2023/09/20 06:25:01;;;;;;;2.08;0.60;;;;;;;19.78;92.79;94563.72;5040365;28;20033;-81
2023/09/20 06:27:30;;;;;;;1.23;0.60;;;;;;;19.86;100.00;94564.78;5055918;28;20031;-81
2023/09/20 06:29:56;;;;;;;2.13;0.60;;;;;;;19.98;100.00;94569.44;5056441;28;20095;-81
2023/09/20 06:32:22;;;;;;;2.30;0.70;;;;;;;19.94;99.62;94574.63;5056045;28;20339;-82
2023/09/20 06:34:47;;;;;;;0.85;0.45;;;;;;;19.98;95.46;94564.13;5056515;28;20086;-81
2023/09/20 06:37:13;;;;;;;4.05;0.75;;;;;;;19.95;95.41;94567.44;5055954;28;20029;-81
2023/09/20 06:39:38;;;;;;;1.45;0.70;;;;;;;20.01;95.91;94561.63;5039621;28;20174;-81
2023/09/20 06:42:04;;;;;;;3.20;0.57;;;;;;;20.18;93.23;94562.59;5039807;28;20028;-82
2023/09/20 06:44:38;;;;;;;0.65;0.50;;;;;;;20.30;100.00;94564.53;5039903;28;20028;-81
2023/09/20 06:47:08;;;;;;;1.08;0.50;;;;;;;20.22;100.00;94557.38;5040136;28;20025;-81
2023/09/20 06:49:34;;;;;;;1.27;0.50;;;;;;;20.07;100.00;94554.19;5055895;28;20040;-81
2023/09/20 06:52:03;;;;;;;1.08;0.47;;;;;;;19.87;100.00;94564.47;5039611;28;20029;-81
2023/09/20 06:54:36;;;;;;;1.33;0.57;;;;;;;19.79;96.59;94557.31;5056109;28;20025;-81
2023/09/20 06:57:05;;;;;;;0.63;0.52;;;;;;;19.01;100.00;94554.63;5056617;28;20029;-81
2023/09/20 06:59:34;;;;;;;1.17;0.60;;;;;;;18.90;100.00;94558.69;5039694;28;20029;-82
2023/09/20 07:02:00;;;;;;;0.90;0.50;;;;;;;19.71;100.00;94566.13;5055712;28;20029;-81
2023/09/20 07:04:25;;;;;;;3.00;0.60;;;;;;;19.87;100.00;94572.44;5039079;28;20036;-81
2023/09/20 07:06:57;;;;;;;0.52;0.50;;;;;;;19.62;100.00;94582.09;5055603;28;20425;-81
2023/09/20 07:09:23;;;;;;;2.65;0.85;;;;;;;19.03;100.00;94573.69;5055709;28;20024;-82
2023/09/20 07:11:50;;;;;;;1.05;0.68;;;;;;;19.00;100.00;94584.16;5039313;28;20471;-82
2023/09/20 07:14:20;;;;;;;2.88;0.52;;;;;;;19.54;100.00;94586.34;5055689;28;20056;-82
2023/09/20 07:16:47;;;;;;;2.53;0.77;;;;;;;19.52;100.00;94585.09;5055638;28;20028;-81
2023/09/20 07:19:17;;;;;;;1.00;0.65;;;;;;;19.58;100.00;94586.47;5056439;28;20035;-81
2023/09/20 07:21:43;;;;;;;3.03;0.80;;;;;;;19.32;100.00;94582.81;5039991;28;20055;-81
2023/09/20 07:24:12;;;;;;;1.40;0.88;;;;;;;19.19;100.00;94589.13;5055402;28;20028;-81
2023/09/20 07:26:38;;;;;;;1.42;0.80;;;;;;;19.14;100.00;94590.06;5055545;28;20111;-81
2023/09/20 07:29:05;;;;;;;6.65;0.73;;;;;;;18.79;100.00;94590.88;5072131;28;20091;-81
2023/09/20 07:31:36;;;;;;;1.55;0.70;;;;;;;19.40;100.00;94599.06;5056677;28;20151;-82
2023/09/20 07:34:03;;;;;;;3.00;0.60;;;;;;;19.52;100.00;94599.19;5055452;28;20028;-81
2023/09/20 07:36:30;;;;;;;1.17;0.68;;;;;;;19.85;100.00;94605.75;5055352;28;20021;-81
2023/09/20 07:38:56;;;;;;;2.13;0.68;;;;;;;19.83;100.00;94611.41;5054666;28;20021;-81
2023/09/20 07:41:22;;;;;;;0.93;0.60;;;;;;;19.92;100.00;94600.75;5055173;28;20438;-82
2023/09/20 07:43:47;;;;;;;1.85;0.70;;;;;;;20.29;99.66;94610.88;5055234;28;20032;-82
2023/09/20 07:46:14;;;;;;;1.38;0.60;;;;;;;20.49;98.18;94610.09;5055108;28;20025;-82
2023/09/20 07:48:47;;;;;;;1.10;0.60;;;;;;;20.19;100.00;94610.13;5055121;28;20024;-81
2023/09/20 07:51:14;;;;;;;0.57;0.50;;;;;;;20.32;100.00;94608.34;5055373;28;20024;-81
2023/09/20 07:53:40;;;;;;;0.90;0.70;;;;;;;20.62;100.00;94608.28;5055194;28;20027;-82
2023/09/20 07:56:06;;;;;;;3.28;0.70;;;;;;;20.49;100.00;94609.31;5056182;28;20028;-81
2023/09/20 07:58:32;;;;;;;2.47;0.75;;;;;;;20.74;100.00;94610.22;5055088;28;20127;-81
2023/09/20 08:00:58;;;;;;;1.42;0.80;;;;;;;21.03;96.92;94611.25;5056327;28;20028;-81
2023/09/20 08:03:23;;;;;;;0.77;0.50;;;;;;;21.35;100.00;94608.13;5038402;28;20505;-82
2023/09/20 08:05:50;;;;;;;1.77;0.70;;;;;;;21.74;96.12;94608.66;5038657;28;20365;-81
2023/09/20 08:08:16;;;;;;;3.67;0.70;;;;;;;21.45;100.00;94606.91;5038576;28;20032;-81
2023/09/20 08:10:43;;;;;;;1.08;0.60;;;;;;;20.12;100.00;94611.75;5038364;28;20066;-82
2023/09/20 08:13:09;;;;;;;1.40;0.73;;;;;;;20.63;100.00;94614.38;5055054;28;20489;-81
2023/09/20 08:15:44;;;;;;;1.83;0.80;;;;;;;21.22;100.00;94617.94;5054927;28;20116;-82
2023/09/20 08:20:57;;;;;;;21.20;8.70;;;;;;;21.58;91.77;94610.34;5055142;28;20044;-82
2023/09/20 09:02:13;;;;;;;2.00;0.75;;;;;;;22.09;72.87;94626.06;5058401;28;20128;-81
2023/09/20 09:04:39;;;;;;;1.27;0.95;;;;;;;21.86;76.43;94628.41;5074978;28;20056;-81
2023/09/20 09:07:05;;;;;;;3.90;1.35;;;;;;;21.31;81.30;94631.22;5035679;28;20438;-81
2023/09/20 09:09:30;;;;;;;2.58;1.00;;;;;;;22.00;78.70;94626.19;5035276;28;20029;-81
2023/09/20 09:11:57;;;;;;;1.80;0.90;;;;;;;22.21;76.80;94627.97;5018883;28;20040;-81
2023/09/20 09:14:24;;;;;;;2.72;1.10;;;;;;;22.40;76.26;94623.94;5021254;28;20025;-81
2023/09/20 09:17:00;;;;;;;1.98;1.05;;;;;;;22.53;75.52;94630.06;5037683;28;20124;-81
2023/09/20 09:19:25;;;;;;;3.08;0.93;;;;;;;22.98;70.91;94618.34;5037687;28;20037;-82
2023/09/20 09:21:51;;;;;;;1.65;1.02;;;;;;;22.61;71.53;94629.16;5038948;28;20398;-81
2023/09/20 09:24:17;;;;;;;1.15;0.90;;;;;;;22.30;81.60;94631.28;5037956;28;20419;-82
2023/09/20 09:26:45;;;;;;;0.70;0.52;;;;;;;22.89;69.97;94631.06;5037610;28;20124;-82
2023/09/20 09:29:17;;;;;;;2.20;0.60;;;;;;;23.20;68.16;94634.94;5037472;28;20030;-82
2023/09/20 09:31:48;;;;;;;1.40;0.70;;;;;;;23.08;65.24;94635.78;5038820;28;20048;-81
2023/09/20 09:34:15;;;;;;;1.10;0.60;;;;;;;23.44;59.83;94631.38;5038712;28;20032;-82
2023/09/20 09:36:41;;;;;;;2.67;0.80;;;;;;;23.76;62.48;94629.88;5037340;28;20030;-81
2023/09/20 09:39:09;;;;;;;1.35;0.90;;;;;;;23.23;73.94;94633.47;5038627;28;20036;-82
2023/09/20 09:41:42;;;;;;;2.10;0.80;;;;;;;23.73;63.37;94634.00;5037413;28;20025;-82
2023/09/20 09:44:07;;;;;;;1.45;0.77;;;;;;;24.40;63.19;94627.91;5037364;28;20464;-82
2023/09/20 09:46:40;;;;;;;1.23;0.90;;;;;;;24.57;65.74;94624.03;5037272;28;20132;-82
2023/09/20 09:49:12;;;;;;;1.40;0.80;;;;;;;24.66;64.32;94626.50;5037249;28;20057;-82
2023/09/20 09:51:45;;;;;;;1.27;0.77;;;;;;;22.38;78.80;94624.28;5021310;28;20526;-82
2023/09/20 09:54:12;;;;;;;2.42;1.10;;;;;;;24.00;67.90;94629.66;5037142;28;20029;-82
2023/09/20 09:56:38;;;;;;;1.27;0.60;;;;;;;23.74;66.91;94622.19;5020351;28;20103;-82
2023/09/20 09:59:05;;;;;;;1.90;0.93;;;;;;;23.21;69.70;94627.72;5036986;28;20068;-82
2023/09/20 10:01:36;;;;;;;2.72;0.80;;;;;;;23.48;67.47;94626.13;5020247;28;20032;-81
2023/09/20 10:04:10;;;;;;;2.17;0.98;;;;;;;23.85;60.26;94620.53;5037053;28;20033;-82
2023/09/20 10:06:53;;;;;;;3.95;0.80;;;;;;;23.77;59.57;94616.13;5037012;28;20029;-82
2023/09/20 10:09:23;;;;;;;2.28;0.85;;;;;;;24.31;57.64;94610.47;5038434;28;20033;-82
2023/09/20 10:11:49;;;;;;;2.78;0.77;;;;;;;23.63;61.05;94611.22;5036839;28;20083;-82
2023/09/20 10:14:14;;;;;;;4.15;0.90;;;;;;;22.97;66.33;94603.44;5036759;28;20124;-82
2023/09/20 10:16:42;;;;;;;2.33;0.90;;;;;;;23.62;61.33;94600.88;5036657;28;20053;-82
2023/09/20 10:19:11;;;;;;;1.58;0.80;;;;;;;23.72;60.00;94605.69;5036469;28;20040;-82
2023/09/20 10:21:37;;;;;;;1.80;1.00;;;;;;;23.36;59.65;94597.56;5036437;28;20026;-82
2023/09/20 10:24:05;;;;;;;2.75;1.00;;;;;;;23.76;58.92;94600.44;5036438;28;20033;-82
2023/09/20 10:26:35;;;;;;;1.77;1.00;;;;;;;23.46;61.75;94593.63;5020233;28;20480;-82
2023/09/20 10:29:25;;;;;;;2.95;1.05;;;;;;;23.38;60.03;94587.31;5036264;28;20029;-81
2023/09/20 10:31:55;;;;;;;2.88;0.80;;;;;;;23.84;61.83;94597.59;5020617;28;20526;-81
2023/09/20 10:34:21;;;;;;;1.10;0.80;;;;;;;23.19;79.79;94592.53;5036253;28;20049;-82
2023/09/20 10:36:53;;;;;;;1.55;0.90;;;;;;;23.52;64.81;94578.84;5020406;28;20080;-81
2023/09/20 10:39:18;;;;;;;1.75;0.95;;;;;;;23.86;60.29;94581.16;5036494;28;20132;-82
2023/09/20 10:41:52;;;;;;;2.38;1.00;;;;;;;23.57;61.38;94581.28;5037509;28;20124;-82
2023/09/20 10:44:31;;;;;;;4.28;0.90;;;;;;;23.19;70.72;94582.59;5037448;28;20025;-82
2023/09/20 10:47:12;;;;;;;3.92;0.80;;;;;;;23.60;69.84;94577.16;5020155;28;20041;-82
2023/09/20 10:49:41;;;;;;;0.70;0.60;;;;;;;23.89;70.08;94575.16;5034506;28;20082;-81
2023/09/20 10:52:07;;;;;;;7.32;1.30;;;;;;;22.45;73.74;94572.97;5036647;28;20370;-82
2023/09/20 10:54:36;;;;;;;4.25;1.27;;;;;;;23.15;69.38;94579.06;5036318;28;20441;-82
2023/09/20 10:57:10;;;;;;;1.95;1.13;;;;;;;22.59;71.41;94577.97;5035861;28;20029;-82
2023/09/20 10:59:36;;;;;;;;;;;;;;;22.65;72.87;94586.53;5036231;28;20025;-82
2023/09/20 11:02:09;;;;;;;3.60;1.40;;;;;;;21.40;84.64;94581.25;5019788;28;20357;-82
2023/09/20 11:04:36;;;;;;;3.78;1.40;;;;;;;21.02;97.91;94576.97;5035885;28;20029;-82
2023/09/20 11:07:02;;;;;;;3.90;1.13;;;;;;;20.62;100.00;94576.34;5035818;28;20345;-82
2023/09/20 11:09:33;;;;;;;3.00;1.20;;;;;;;21.39;92.58;94582.34;5035805;28;20040;-82
2023/09/20 11:12:04;;;;;;;3.90;1.10;;;;;;;21.50;100.00;94577.38;5035868;28;20029;-82
2023/09/20 11:14:40;;;;;;;1.98;0.77;;;;;;;21.64;100.00;94578.94;5035233;28;20033;-82
2023/09/20 11:17:06;;;;;;;1.58;0.80;;;;;;;21.60;100.00;94576.19;5035561;28;20029;-82
2023/09/20 11:19:33;;;;;;;2.38;1.00;;;;;;;20.45;100.00;94573.81;5035662;28;20095;-82
2023/09/20 11:21:58;;;;;;;2.80;1.05;;;;;;;21.14;100.00;94573.53;5035655;28;20021;-82
2023/09/20 11:24:25;;;;;;;4.55;1.20;;;;;;;21.29;100.00;94569.44;5019293;28;20025;-81
2023/09/20 11:26:53;;;;;;;2.28;1.00;;;;;;;21.40;100.00;94575.16;5035544;28;20021;-82
2023/09/20 11:29:19;;;;;;;1.80;1.08;;;;;;;21.47;100.00;94573.50;5019154;28;20080;-82
2023/09/20 11:31:48;;;;;;;4.28;1.30;;;;;;;21.41;100.00;94574.03;5018657;28;20028;-82
2023/09/20 11:34:14;;;;;;;2.78;1.00;;;;;;;21.15;100.00;94569.78;5036317;28;20113;-82
2023/09/20 11:36:44;;;;;;;1.60;0.95;;;;;;;21.26;100.00;94567.44;5027544;28;20487;-81
2023/09/20 11:39:09;;;;;;;7.30;1.20;;;;;;;21.31;100.00;94569.94;5054859;28;20024;-81
2023/09/20 11:41:36;;;;;;;3.88;1.10;;;;;;;21.39;100.00;94561.03;5054872;28;20603;-81
2023/09/20 11:44:05;;;;;;;2.05;1.00;;;;;;;21.45;100.00;94561.59;5055746;28;20072;-82
2023/09/20 11:46:33;;;;;;;3.10;0.80;;;;;;;21.49;100.00;94557.16;5055381;28;20100;-81
2023/09/20 11:49:02;;;;;;;2.63;1.10;;;;;;;21.16;100.00;94553.47;5055228;28;20025;-81
2023/09/20 11:51:39;;;;;;;3.67;0.70;;;;;;;21.54;100.00;94554.28;5038864;28;20111;-81
2023/09/20 11:54:10;;;;;;;1.95;0.90;;;;;;;21.98;100.00;94552.97;5055435;28;20031;-81
2023/09/20 11:56:36;;;;;;;2.13;0.98;;;;;;;21.45;100.00;94543.72;5054916;28;20037;-81
2023/09/20 11:59:10;;;;;;;3.58;1.10;;;;;;;21.91;100.00;94550.84;5041749;28;20029;-81
2023/09/20 12:01:40;;;;;;;1.30;1.00;;;;;;;22.20;100.00;94550.91;5054092;28;20391;-81
2023/09/20 12:04:06;;;;;;;3.15;1.00;;;;;;;22.37;100.00;94565.88;5038669;28;20091;-81
2023/09/20 12:06:32;;;;;;;2.70;1.10;;;;;;;22.03;100.00;94558.06;5054810;28;20028;-81
2023/09/20 12:09:00;;;;;;;1.30;0.90;;;;;;;21.57;100.00;94553.63;5055159;28;20086;-81
2023/09/20 12:11:26;;;;;;;1.77;1.15;;;;;;;22.55;100.00;94553.09;5038811;28;20048;-81